Silver Lake, Ohio
Current Conditions -  °F | °C
As of 7:54 AM on Tuesday 21 Oct 2014 (Local Time) from KAKR Reporting Station
Light Rain Light Rain  
Wind Chill: 52°   Ceiling: 1500
Heat Index: 52°   Visibility: 5mi
Dew Point: 48°   Wind: 8mph
Humidity: 86%   Direction: 330°NNW
Pressure: 29.87"   Gusts: NA
Location:  41.1788°N, 81.4432°W
Report Text: KAKR 211154Z AUTO 33007KT 5SM -RA BR SCT009 BKN015 OVC045 11/09 A2987 RMK AO2 RAB00 SLP116 P0022 60026 70036 T01110089 10117 20106 53014
Loading
Personal Weather Stations






























Interactive Weather Map
Tropical Storm Tracking
New forecast layout! Learn more

10-Day Weather Forecast

Advertisements
Track Severe Weather on mobile